CheckWX is a tool to help pilots better visualize weather data.  It is not intended as a substitute for an official pre-flight weather briefing.

08:05:26 UTC

KBFD TAF
Bradford Regional Airport
Bradford, Pennsylvania, USA
KBFD 230537Z 2306/2406 24005KT P6SM SKC FM231800 23009G15KT P6SM SKC

Feb-23@
06:00 UTC

Feb-23 @ 06:00 UTC

Feb-23@
18:00 UTC

Feb-23 @ 18:00 UTC

KBFD 230537Z 2306/2406 24005KT P6SM SKC
Wind
  • 240° at 5 KTS
Cloud Levels
  • Clear skies

Feb-23@
18:00 UTC

Feb-23 @ 18:00 UTC

Feb-24@
06:00 UTC

Feb-24 @ 06:00 UTC

FM231800 23009G15KT P6SM SKC

From

From Standard forecast or significant change

Wind
  • 230° at 9 KTS
  • {Gusting to 15 KTS
Cloud Levels
  • Clear skies